createdAt,value
2019-03-23T00:02:07.932Z,50.90
2019-03-23T00:04:36.825Z,50.12
2019-03-23T00:07:05.374Z,51.23
2019-03-23T00:09:33.877Z,51.33
2019-03-23T00:12:02.496Z,51.50
2019-03-23T00:14:31.051Z,51.53
2019-03-23T00:16:59.646Z,50.05
2019-03-23T00:19:27.902Z,51.48
2019-03-23T00:21:56.768Z,50.80
2019-03-23T00:24:26.991Z,49.85
2019-03-23T00:26:56.071Z,51.40
2019-03-23T00:29:24.608Z,51.15
2019-03-23T00:31:53.240Z,49.95
2019-03-23T00:34:21.781Z,50.15
2019-03-23T00:36:50.081Z,51.10
2019-03-23T00:39:19.057Z,50.45
2019-03-23T00:41:47.743Z,50.67
2019-03-23T00:44:16.288Z,51.23
2019-03-23T00:46:44.533Z,50.75
2019-03-23T00:49:13.043Z,51.10
2019-03-23T00:51:41.293Z,50.83
2019-03-23T00:54:09.571Z,50.95
2019-03-23T00:56:38.378Z,49.70
2019-03-23T00:59:06.684Z,50.05
2019-03-23T01:01:35.287Z,49.60
2019-03-23T01:04:04.012Z,49.35
2019-03-23T01:06:32.313Z,50.92
2019-03-23T01:09:01.191Z,49.75
2019-03-23T01:11:29.721Z,51.75
2019-03-23T01:13:57.974Z,50.50
2019-03-23T01:16:27.185Z,50.57
2019-03-23T01:18:55.406Z,51.28
2019-03-23T01:21:23.685Z,49.93
2019-03-23T01:23:52.487Z,50.23
2019-03-23T01:26:21.074Z,49.53
2019-03-23T01:28:49.777Z,50.40
2019-03-23T01:31:18.497Z,49.10
2019-03-23T01:33:47.593Z,50.05
2019-03-23T01:36:15.823Z,50.33
2019-03-23T01:38:44.332Z,50.35
2019-03-23T01:41:13.444Z,51.30
2019-03-23T01:43:42.021Z,51.60
2019-03-23T01:46:10.933Z,49.73
2019-03-23T01:48:39.504Z,49.75
2019-03-23T01:51:08.402Z,50.20
2019-03-23T01:53:36.945Z,51.65
2019-03-23T01:56:05.460Z,51.08
2019-03-23T01:58:34.054Z,53.17
2019-03-23T02:01:02.289Z,51.20
2019-03-23T02:03:30.512Z,50.98
2019-03-23T02:05:59.087Z,50.00
2019-03-23T02:08:27.321Z,50.17
2019-03-23T02:10:55.849Z,52.95
2019-03-23T02:13:24.548Z,51.08
2019-03-23T02:15:53.094Z,52.10
2019-03-23T02:18:21.597Z,50.78
2019-03-23T02:20:50.490Z,51.80
2019-03-23T02:23:19.071Z,52.43
2019-03-23T02:25:47.321Z,52.47
2019-03-23T02:28:16.137Z,53.75
2019-03-23T02:30:44.465Z,51.60
2019-03-23T02:33:12.729Z,52.45
2019-03-23T02:35:40.946Z,52.95
2019-03-23T02:38:09.193Z,52.93
2019-03-23T02:40:37.770Z,51.83
2019-03-23T02:43:06.044Z,51.00
2019-03-23T02:45:34.600Z,51.33
2019-03-23T02:48:03.187Z,51.90
2019-03-23T02:50:31.796Z,54.88
2019-03-23T02:53:00.026Z,54.45
2019-03-23T02:55:28.682Z,54.30
2019-03-23T02:57:57.513Z,54.43
2019-03-23T03:00:27.653Z,52.43
2019-03-23T03:02:56.215Z,54.13
2019-03-23T03:05:24.461Z,51.02
2019-03-23T03:07:53.041Z,51.00
2019-03-23T03:10:36.833Z,52.97
2019-03-23T03:13:05.402Z,50.52
2019-03-23T03:15:34.345Z,54.88
2019-03-23T03:18:02.885Z,51.58
2019-03-23T03:20:31.764Z,52.03
2019-03-23T03:23:00.380Z,54.25
2019-03-23T03:25:28.653Z,54.50
2019-03-23T03:27:57.159Z,52.17
2019-03-23T03:30:26.222Z,51.60
2019-03-23T03:32:55.094Z,51.48
2019-03-23T03:35:23.755Z,49.13
2019-03-23T03:37:56.805Z,52.60
2019-03-23T03:40:22.385Z,51.55
2019-03-23T03:42:51.282Z,55.23
2019-03-23T03:45:23.385Z,50.38
2019-03-23T03:47:51.926Z,54.05
2019-03-23T03:50:20.506Z,56.47
2019-03-23T03:52:49.106Z,51.00
2019-03-23T03:55:17.986Z,52.80
2019-03-23T03:57:46.224Z,57.10
2019-03-23T04:00:14.553Z,57.20
2019-03-23T04:02:43.206Z,52.30
2019-03-23T04:05:12.131Z,52.05
2019-03-23T04:07:40.798Z,50.95
2019-03-23T04:10:09.005Z,49.65
2019-03-23T04:12:37.340Z,57.98
2019-03-23T04:15:06.026Z,49.65
2019-03-23T04:17:34.326Z,48.38
2019-03-23T04:20:02.607Z,47.27
2019-03-23T04:22:31.554Z,57.93
2019-03-23T04:25:00.282Z,48.85
2019-03-23T04:27:29.939Z,47.73
2019-03-23T04:29:58.145Z,50.70
2019-03-23T04:32:26.644Z,47.40
2019-03-23T04:34:55.248Z,56.23
2019-03-23T04:37:23.809Z,49.65
2019-03-23T04:39:52.358Z,45.38
2019-03-23T04:42:20.872Z,48.90
2019-03-23T04:44:49.131Z,47.43
2019-03-23T04:47:17.735Z,57.63
2019-03-23T04:49:45.964Z,44.73
2019-03-23T04:52:14.206Z,46.25
2019-03-23T04:54:42.802Z,44.08
2019-03-23T04:57:11.387Z,42.90
2019-03-23T04:59:39.629Z,41.87
2019-03-23T05:02:08.280Z,41.42
2019-03-23T05:04:36.560Z,44.33
2019-03-23T05:07:04.771Z,42.40
2019-03-23T05:09:33.589Z,41.15
2019-03-23T05:12:02.211Z,43.80
2019-03-23T05:14:30.396Z,43.52
2019-03-23T05:16:59.012Z,51.23
2019-03-23T05:19:27.266Z,50.92
2019-03-23T05:21:55.924Z,54.98
2019-03-23T05:24:24.461Z,46.50
2019-03-23T05:26:52.697Z,51.83
2019-03-23T05:29:21.521Z,46.55
2019-03-23T05:31:50.191Z,56.08
2019-03-23T05:34:18.530Z,48.10
2019-03-23T05:36:47.066Z,59.63
2019-03-23T05:39:15.414Z,61.20
2019-03-23T05:41:43.632Z,48.17
2019-03-23T05:44:12.168Z,49.27
2019-03-23T05:46:40.785Z,45.30
2019-03-23T05:49:09.065Z,47.50
2019-03-23T05:51:37.752Z,49.95
2019-03-23T05:54:06.362Z,49.60
2019-03-23T05:56:34.665Z,51.55
2019-03-23T05:59:02.887Z,52.00
2019-03-23T06:01:31.524Z,52.85
2019-03-23T06:04:01.762Z,53.23
2019-03-23T06:06:30.002Z,58.92
2019-03-23T06:08:58.222Z,55.50
2019-03-23T06:11:26.494Z,55.45
2019-03-23T06:13:56.122Z,59.42
2019-03-23T06:16:24.787Z,57.13
2019-03-23T06:18:53.070Z,54.75
2019-03-23T06:21:21.340Z,56.15
2019-03-23T06:23:50.266Z,55.78
2019-03-23T06:26:19.157Z,54.90
2019-03-23T06:28:47.746Z,57.55
2019-03-23T06:31:16.326Z,59.63
2019-03-23T06:33:44.910Z,58.42
2019-03-23T06:36:13.394Z,58.33
2019-03-23T06:38:41.978Z,57.90
2019-03-23T06:41:10.480Z,66.15
2019-03-23T06:43:39.151Z,65.80
2019-03-23T06:46:07.328Z,62.20
2019-03-23T06:48:35.898Z,65.28
2019-03-23T06:51:04.487Z,65.20
2019-03-23T06:53:33.067Z,65.65
2019-03-23T06:56:01.323Z,62.85
2019-03-23T06:58:29.893Z,61.30
2019-03-23T07:00:58.494Z,62.53
2019-03-23T07:03:26.758Z,64.03
2019-03-23T07:05:55.585Z,65.10
2019-03-23T07:08:31.866Z,65.28
2019-03-23T07:10:54.379Z,66.33
2019-03-23T07:13:22.945Z,62.53
2019-03-23T07:15:51.501Z,62.95
2019-03-23T07:18:20.103Z,59.63
2019-03-23T07:20:48.622Z,55.43
2019-03-23T07:23:16.865Z,50.60
2019-03-23T07:25:45.106Z,47.85
2019-03-23T07:28:14.071Z,50.78
2019-03-23T07:30:42.326Z,49.23
2019-03-23T07:33:10.931Z,48.23
2019-03-23T07:35:39.478Z,46.90
2019-03-23T07:38:08.029Z,46.85
2019-03-23T07:40:36.289Z,44.40
2019-03-23T07:43:04.491Z,44.10
2019-03-23T07:45:32.723Z,44.00
2019-03-23T07:48:00.946Z,43.13
2019-03-23T07:50:29.486Z,42.80
2019-03-23T07:52:57.738Z,42.53
2019-03-23T07:55:26.585Z,42.50
2019-03-23T07:57:55.092Z,42.62
2019-03-23T08:00:23.440Z,41.98
2019-03-23T08:02:52.500Z,42.23
2019-03-23T08:05:20.749Z,42.13
2019-03-23T08:07:49.323Z,41.75
2019-03-23T08:10:27.096Z,42.23
2019-03-23T08:12:55.422Z,40.48
2019-03-23T08:15:24.002Z,41.20
2019-03-23T08:17:52.593Z,39.65
2019-03-23T08:20:21.704Z,40.73
2019-03-23T08:22:50.188Z,40.50
2019-03-23T08:25:19.072Z,40.60
2019-03-23T08:27:47.661Z,38.90
2019-03-23T08:30:16.250Z,39.18
2019-03-23T08:32:44.506Z,37.90
2019-03-23T08:35:13.524Z,35.25
2019-03-23T08:37:41.796Z,35.78
2019-03-23T08:40:10.368Z,36.55
2019-03-23T08:42:38.965Z,37.78
2019-03-23T08:45:08.012Z,40.67
2019-03-23T08:47:36.592Z,38.45
2019-03-23T08:50:05.002Z,36.60
2019-03-23T08:52:33.621Z,32.60
2019-03-23T08:55:01.888Z,32.10
2019-03-23T08:57:30.779Z,32.90
2019-03-23T08:59:59.001Z,32.98
2019-03-23T09:02:28.083Z,32.53
2019-03-23T09:04:56.309Z,33.53
2019-03-23T09:07:24.869Z,33.55
2019-03-23T09:09:59.043Z,33.63
2019-03-23T09:12:23.718Z,35.40
2019-03-23T09:14:51.992Z,36.35
2019-03-23T09:17:20.521Z,36.73
2019-03-23T09:19:49.059Z,37.35
2019-03-23T09:22:17.276Z,34.67
2019-03-23T09:24:46.227Z,34.37
2019-03-23T09:27:14.472Z,33.67
2019-03-23T09:29:43.587Z,33.40
2019-03-23T09:32:12.191Z,33.30
2019-03-23T09:34:40.438Z,34.13
2019-03-23T09:37:08.710Z,32.03
2019-03-23T09:39:37.638Z,34.50
2019-03-23T09:42:07.144Z,34.65
2019-03-23T09:44:35.837Z,36.10
2019-03-23T09:47:04.809Z,35.73
2019-03-23T09:49:33.051Z,36.73
2019-03-23T09:52:01.663Z,36.13
2019-03-23T09:54:30.671Z,34.80
2019-03-23T09:56:59.662Z,33.15
2019-03-23T09:59:28.640Z,31.75
2019-03-23T10:01:56.881Z,31.25
2019-03-23T10:04:25.414Z,32.65
2019-03-23T10:06:54.201Z,31.20
2019-03-23T10:09:22.478Z,32.25
2019-03-23T10:11:50.769Z,31.30
2019-03-23T10:14:19.069Z,32.42
2019-03-23T10:16:47.626Z,32.70
2019-03-23T10:19:16.153Z,33.40
2019-03-23T10:21:44.414Z,33.13
2019-03-23T10:24:13.374Z,32.65
2019-03-23T10:26:41.963Z,32.93
2019-03-23T10:29:10.841Z,32.70
2019-03-23T10:31:39.163Z,32.63
2019-03-23T10:34:07.413Z,31.60
2019-03-23T10:36:36.037Z,32.17
2019-03-23T10:39:05.795Z,32.42
2019-03-23T10:41:34.371Z,31.87
2019-03-23T10:44:02.737Z,32.10
2019-03-23T10:46:30.999Z,32.20
2019-03-23T10:48:59.968Z,31.07
2019-03-23T10:51:28.712Z,31.10
2019-03-23T10:53:56.974Z,30.10
2019-03-23T10:56:25.191Z,31.73
2019-03-23T10:58:53.955Z,31.00
2019-03-23T11:01:22.681Z,32.13
2019-03-23T11:03:50.937Z,32.45
2019-03-23T11:06:19.614Z,32.70
2019-03-23T11:08:48.128Z,31.95
2019-03-23T11:11:16.636Z,32.08
2019-03-23T11:13:45.562Z,32.30
2019-03-23T11:16:14.105Z,31.17
2019-03-23T11:18:42.735Z,32.58
2019-03-23T11:21:11.020Z,32.25
2019-03-23T11:23:40.125Z,31.85
2019-03-23T11:26:08.432Z,31.73
2019-03-23T11:28:37.057Z,31.85
2019-03-23T11:31:05.618Z,31.25
2019-03-23T11:33:33.825Z,34.03
2019-03-23T11:36:02.065Z,32.27
2019-03-23T11:38:31.005Z,33.75
2019-03-23T11:40:59.272Z,33.90
2019-03-23T11:43:28.169Z,34.13
2019-03-23T11:45:56.712Z,34.70
2019-03-23T11:48:25.001Z,34.30
2019-03-23T11:50:53.507Z,35.33
2019-03-23T11:53:22.088Z,35.35
2019-03-23T11:55:50.276Z,33.80
2019-03-23T11:58:18.521Z,34.73
2019-03-23T12:00:47.430Z,35.35
2019-03-23T12:03:15.765Z,35.55
2019-03-23T12:05:43.989Z,34.85
2019-03-23T12:08:12.657Z,35.70
2019-03-23T12:10:40.905Z,34.70
2019-03-23T12:13:09.682Z,33.60
2019-03-23T12:15:38.538Z,35.80
2019-03-23T12:18:07.005Z,33.67
2019-03-23T12:20:35.244Z,33.58
2019-03-23T12:23:03.497Z,33.90
2019-03-23T12:25:32.128Z,34.48
2019-03-23T12:28:00.356Z,33.80
2019-03-23T12:30:28.588Z,33.90
2019-03-23T12:32:56.836Z,34.40
2019-03-23T12:35:28.006Z,35.03
2019-03-23T12:37:56.497Z,34.78
2019-03-23T12:40:25.067Z,35.40
2019-03-23T12:42:53.317Z,35.50
2019-03-23T12:45:21.577Z,35.45
2019-03-23T12:47:49.858Z,34.50
2019-03-23T12:50:18.485Z,33.40
2019-03-23T12:52:47.358Z,33.05
2019-03-23T12:55:15.621Z,33.15
2019-03-23T12:57:43.831Z,32.50
2019-03-23T13:00:12.843Z,34.13
2019-03-23T13:02:41.419Z,35.17
2019-03-23T13:05:09.993Z,35.25
2019-03-23T13:07:38.828Z,35.75
2019-03-23T13:10:07.477Z,36.33
2019-03-23T13:12:36.605Z,37.45
2019-03-23T13:15:05.995Z,35.68
2019-03-23T13:17:34.213Z,37.45
2019-03-23T13:20:02.915Z,37.17
2019-03-23T13:22:31.212Z,37.20
2019-03-23T13:25:00.210Z,36.88
2019-03-23T13:27:28.824Z,36.42
2019-03-23T13:29:57.881Z,36.28
2019-03-23T13:32:26.126Z,36.15
2019-03-23T13:34:54.612Z,35.35
2019-03-23T13:37:23.545Z,36.68
2019-03-23T13:39:52.130Z,36.63
2019-03-23T13:42:20.714Z,36.97
2019-03-23T13:44:49.297Z,38.10
2019-03-23T13:47:17.852Z,38.77
2019-03-23T13:49:46.356Z,36.68
2019-03-23T13:52:15.211Z,35.23
2019-03-23T13:54:43.448Z,35.55
2019-03-23T13:57:12.119Z,36.73
2019-03-23T13:59:40.332Z,35.43
2019-03-23T14:02:08.606Z,34.60
2019-03-23T14:04:37.139Z,33.48
2019-03-23T14:07:05.365Z,33.30
2019-03-23T14:09:33.611Z,33.30
2019-03-23T14:12:02.236Z,32.80
2019-03-23T14:14:30.468Z,31.85
2019-03-23T14:16:58.707Z,30.00
2019-03-23T14:19:27.029Z,30.57
2019-03-23T14:21:55.400Z,30.37
2019-03-23T14:24:23.879Z,27.30
2019-03-23T14:26:52.105Z,25.50
2019-03-23T14:29:21.767Z,24.73
2019-03-23T14:31:50.344Z,24.77
2019-03-23T14:34:19.181Z,26.10
2019-03-23T14:36:48.039Z,26.12
2019-03-23T14:39:16.245Z,25.00
2019-03-23T14:41:44.785Z,28.20
2019-03-23T14:44:13.024Z,27.30
2019-03-23T14:46:41.632Z,27.40
2019-03-23T14:49:09.898Z,28.50
2019-03-23T14:51:38.249Z,26.97
2019-03-23T14:54:06.799Z,27.40
2019-03-23T14:56:35.621Z,26.00
2019-03-23T14:59:04.809Z,25.80
2019-03-23T15:01:33.026Z,26.00
2019-03-23T15:04:01.595Z,26.30
2019-03-23T15:06:29.829Z,25.35
2019-03-23T15:08:58.394Z,25.00
2019-03-23T15:11:26.981Z,24.87
2019-03-23T15:13:55.320Z,25.95
2019-03-23T15:16:24.046Z,24.60
2019-03-23T15:18:52.867Z,25.10
2019-03-23T15:21:21.486Z,25.32
2019-03-23T15:23:50.409Z,26.62
2019-03-23T15:26:18.671Z,26.48
2019-03-23T15:28:46.999Z,26.70
2019-03-23T15:31:15.258Z,27.00
2019-03-23T15:33:43.510Z,25.65
2019-03-23T15:36:12.098Z,24.67
2019-03-23T15:38:40.367Z,24.70
2019-03-23T15:41:08.958Z,25.23
2019-03-23T15:43:37.545Z,24.77
2019-03-23T15:46:06.841Z,25.40
2019-03-23T15:48:35.076Z,26.50
2019-03-23T15:51:03.444Z,24.70
2019-03-23T15:53:31.741Z,24.32
2019-03-23T15:56:00.366Z,23.12
2019-03-23T15:58:28.956Z,23.40
2019-03-23T16:00:57.464Z,22.82
2019-03-23T16:03:26.048Z,23.37
2019-03-23T16:05:54.284Z,21.12
2019-03-23T16:08:23.111Z,22.20
2019-03-23T16:10:52.416Z,23.00
2019-03-23T16:13:21.275Z,22.37
2019-03-23T16:15:49.522Z,22.32
2019-03-23T16:18:18.133Z,22.20
2019-03-23T16:20:47.537Z,21.90
2019-03-23T16:23:15.848Z,21.63
2019-03-23T16:25:44.678Z,21.90
2019-03-23T16:28:12.974Z,21.55
2019-03-23T16:30:41.566Z,21.43
2019-03-23T16:33:10.159Z,21.50
2019-03-23T16:35:38.367Z,21.80
2019-03-23T16:38:06.620Z,21.67
2019-03-23T16:40:34.829Z,21.93
2019-03-23T16:43:03.512Z,22.25
2019-03-23T16:45:32.355Z,21.57
2019-03-23T16:48:00.931Z,21.77
2019-03-23T16:50:29.427Z,20.80
2019-03-23T16:52:58.309Z,21.27
2019-03-23T16:55:26.604Z,21.52
2019-03-23T16:57:54.861Z,20.70
2019-03-23T17:00:33.897Z,21.40
2019-03-23T17:03:02.493Z,21.62
2019-03-23T17:05:31.464Z,20.27
2019-03-23T17:07:59.696Z,19.57
2019-03-23T17:10:27.962Z,22.20
2019-03-23T17:12:56.506Z,18.50
2019-03-23T17:15:25.392Z,17.60
2019-03-23T17:17:53.637Z,18.50
2019-03-23T17:20:21.857Z,17.17
2019-03-23T17:22:50.150Z,17.55
2019-03-23T17:25:19.022Z,16.52
2019-03-23T17:27:47.597Z,15.95
2019-03-23T17:30:17.207Z,13.20
2019-03-23T17:32:45.459Z,12.65
2019-03-23T17:35:14.357Z,8.68
2019-03-23T17:37:43.271Z,6.70
2019-03-23T17:40:11.934Z,6.45
2019-03-23T17:42:40.542Z,6.27
2019-03-23T17:45:10.244Z,5.83
2019-03-23T17:47:38.828Z,4.22
2019-03-23T17:50:07.188Z,4.60
2019-03-23T17:52:36.114Z,5.25
2019-03-23T17:55:04.796Z,3.98
2019-03-23T17:57:33.448Z,5.87
2019-03-23T18:00:02.274Z,5.95
2019-03-23T18:02:30.953Z,4.80
2019-03-23T18:05:00.004Z,5.08
2019-03-23T18:07:28.628Z,5.40
2019-03-23T18:09:56.871Z,5.60
2019-03-23T18:12:25.064Z,5.78
2019-03-23T18:14:53.673Z,5.40
2019-03-23T18:17:21.984Z,5.55
2019-03-23T18:19:50.254Z,6.22
2019-03-23T18:22:18.775Z,5.75
2019-03-23T18:24:47.337Z,6.80
2019-03-23T18:27:16.174Z,6.55
2019-03-23T18:29:47.473Z,5.85
2019-03-23T18:32:15.921Z,5.40
2019-03-23T18:34:44.153Z,5.28
2019-03-23T18:37:12.377Z,5.08
2019-03-23T18:39:40.630Z,5.10
2019-03-23T18:42:09.227Z,7.55
2019-03-23T18:44:37.485Z,13.78
2019-03-23T18:47:05.770Z,21.35
2019-03-23T18:49:34.650Z,17.55
2019-03-23T18:52:03.493Z,7.40
2019-03-23T18:54:31.756Z,6.97
2019-03-23T18:57:00.928Z,7.85
2019-03-23T18:59:29.153Z,8.50
2019-03-23T19:01:57.765Z,6.15
2019-03-23T19:04:26.361Z,8.10
2019-03-23T19:06:54.941Z,6.83
2019-03-23T19:09:23.752Z,7.28
2019-03-23T19:11:51.950Z,7.50
2019-03-23T19:14:20.520Z,7.40
2019-03-23T19:16:49.378Z,6.30
2019-03-23T19:19:17.644Z,7.35
2019-03-23T19:21:46.303Z,6.35
2019-03-23T19:24:15.371Z,6.03
2019-03-23T19:26:43.942Z,5.90
2019-03-23T19:29:12.226Z,5.78
2019-03-23T19:31:40.801Z,5.67
2019-03-23T19:34:09.399Z,5.95
2019-03-23T19:36:37.626Z,5.43
2019-03-23T19:39:08.071Z,5.55
2019-03-23T19:41:36.368Z,5.45
2019-03-23T19:44:04.899Z,8.20
2019-03-23T19:46:33.434Z,6.00
2019-03-23T19:49:01.690Z,5.75
2019-03-23T19:51:29.900Z,5.40
2019-03-23T19:53:58.156Z,5.80
2019-03-23T19:56:26.648Z,5.95
2019-03-23T19:58:54.934Z,15.40
2019-03-23T20:01:23.395Z,10.40
2019-03-23T20:03:52.603Z,9.13
2019-03-23T20:06:20.873Z,10.32
2019-03-23T20:08:49.208Z,14.47
2019-03-23T20:11:17.760Z,10.32
2019-03-23T20:13:46.625Z,7.65
2019-03-23T20:16:15.208Z,6.42
2019-03-23T20:18:43.428Z,6.47
2019-03-23T20:21:11.969Z,7.00
2019-03-23T20:23:40.545Z,6.62
2019-03-23T20:26:09.146Z,6.58
2019-03-23T20:28:37.397Z,6.35
2019-03-23T20:31:06.009Z,6.43
2019-03-23T20:33:34.993Z,7.08
2019-03-23T20:36:03.263Z,7.20
2019-03-23T20:38:31.938Z,6.60
2019-03-23T20:41:00.748Z,6.12
2019-03-23T20:43:28.965Z,7.50
2019-03-23T20:45:57.469Z,7.40
2019-03-23T20:48:26.740Z,6.00
2019-03-23T20:50:55.269Z,6.50
2019-03-23T20:53:24.493Z,10.00
2019-03-23T20:55:53.182Z,19.15
2019-03-23T20:58:21.514Z,10.30
2019-03-23T21:00:50.049Z,12.80
2019-03-23T21:03:18.302Z,17.27
2019-03-23T21:05:46.889Z,7.33
2019-03-23T21:08:15.381Z,7.10
2019-03-23T21:10:43.970Z,5.58
2019-03-23T21:13:12.541Z,5.78
2019-03-23T21:15:40.789Z,6.05
2019-03-23T21:18:09.349Z,5.10
2019-03-23T21:20:38.093Z,5.10
2019-03-23T21:23:06.961Z,5.50
2019-03-23T21:25:35.613Z,5.12
2019-03-23T21:28:04.227Z,5.60
2019-03-23T21:30:32.728Z,5.20
2019-03-23T21:33:01.322Z,5.05
2019-03-23T21:35:29.883Z,4.70
2019-03-23T21:37:58.098Z,4.50
2019-03-23T21:40:26.338Z,4.50
2019-03-23T21:42:54.564Z,4.80
2019-03-23T21:45:22.809Z,28.60
2019-03-23T21:47:51.315Z,29.02
2019-03-23T21:50:20.177Z,15.88
2019-03-23T21:52:49.082Z,10.93
2019-03-23T21:55:17.553Z,6.67
2019-03-23T21:57:45.770Z,9.18
2019-03-23T22:00:16.577Z,7.42
2019-03-23T22:02:45.452Z,6.00
2019-03-23T22:05:14.001Z,6.50
2019-03-23T22:07:42.225Z,6.17
2019-03-23T22:10:10.765Z,5.78
2019-03-23T22:12:38.974Z,5.70
2019-03-23T22:15:07.725Z,6.00
2019-03-23T22:17:36.259Z,5.80
2019-03-23T22:20:05.569Z,5.60
2019-03-23T22:22:34.113Z,5.93
2019-03-23T22:25:02.407Z,5.75
2019-03-23T22:27:30.717Z,5.40
2019-03-23T22:29:59.323Z,5.07
2019-03-23T22:32:27.581Z,5.00
2019-03-23T22:34:55.780Z,4.80
2019-03-23T22:37:24.026Z,4.97
2019-03-23T22:39:52.203Z,4.62
2019-03-23T22:42:20.461Z,5.00
2019-03-23T22:44:52.699Z,4.80
2019-03-23T22:47:19.496Z,5.53
2019-03-23T22:49:48.193Z,6.10
2019-03-23T22:52:16.445Z,5.27
2019-03-23T22:54:44.900Z,4.80
2019-03-23T22:57:13.207Z,4.80
2019-03-23T22:59:41.444Z,4.42
2019-03-23T23:02:10.093Z,4.20
2019-03-23T23:04:38.374Z,4.50
2019-03-23T23:07:06.594Z,4.83
2019-03-23T23:09:34.849Z,4.85
2019-03-23T23:12:03.177Z,5.25
2019-03-23T23:14:31.437Z,4.83
2019-03-23T23:16:59.967Z,5.40
2019-03-23T23:19:28.485Z,5.00
2019-03-23T23:21:57.073Z,5.28
2019-03-23T23:24:25.860Z,4.72
2019-03-23T23:26:54.365Z,4.90
2019-03-23T23:29:22.930Z,4.50
2019-03-23T23:31:51.253Z,4.60
2019-03-23T23:34:19.472Z,4.80
2019-03-23T23:36:48.024Z,6.25
2019-03-23T23:39:16.549Z,4.80
2019-03-23T23:41:45.961Z,5.33
2019-03-23T23:44:14.549Z,4.58
2019-03-23T23:46:43.427Z,4.90
2019-03-23T23:49:12.018Z,5.08
2019-03-23T23:51:49.766Z,4.37
2019-03-23T23:54:10.220Z,4.50
2019-03-23T23:56:38.484Z,4.90
2019-03-23T23:59:07.074Z,5.42
